Astra — PB4187 — position and weather

sailwx.info

Track history (hours):
 
Tides and Currents Weather Stations Pressure Air Temp Water Temp Dewpoint Dewpoint Depression Visibility Wind Speed Wind Dir Waves Ship Positions

Astra

Last reported at 2017-Jan-20 11:29 UTC. Time now 2017-Jan-20 11:57 UTC.
Position N 50°57' E 006°59'.

Length 110 m.

Type: Tanker. MMSI: 244650752.

Date/timePositionNaut miles runAvg speedWind from/ knotsBaromVisibWave heightAir tempDewpointWater temp
2017-Jan-20 11:29N 50°57' E 006°59'0 0.0
2017-Jan-20 10:29N 50°57' E 006°59'0 0.0
2017-Jan-20 09:33N 50°57' E 006°59'0 0.0
2017-Jan-20 08:32N 50°57' E 006°59'0 0.0
2017-Jan-20 07:31N 50°57' E 006°59'0 0.0
2017-Jan-20 06:30N 50°57' E 006°59'0 0.0
2017-Jan-20 05:29N 50°57' E 006°59'0 0.0
2017-Jan-20 04:33N 50°57' E 006°59'0 0.0
2017-Jan-20 03:32N 50°57' E 006°59'0 0.0
2017-Jan-20 02:31N 50°57' E 006°59'0 0.0
2017-Jan-20 01:28N 50°57' E 006°59'0 0.0
2017-Jan-20 00:32N 50°57' E 006°59'0 0.0
2017-Jan-19 23:31N 50°57' E 006°59'0 0.0
2017-Jan-19 22:31N 50°57' E 006°59'0 0.0
2017-Jan-19 21:30N 50°57' E 006°59'0 0.0
2017-Jan-19 20:29N 50°57' E 006°59'0 0.0
2017-Jan-19 19:31N 50°57' E 006°59'0 0.0
2017-Jan-19 18:29N 50°57' E 006°59'0 0.0
2017-Jan-19 16:16N 50°57' E 006°59'0 0.1
2017-Jan-19 15:30N 50°57' E 006°59'0 0.0
2017-Jan-19 14:29N 50°57' E 006°59'0 0.0
2017-Jan-19 13:33N 50°57' E 006°59'0 0.3
2017-Jan-19 12:33N 50°57' E 006°59'6 6.1
2017-Jan-19 11:30N 50°51' E 007°00'2 1.6
2017-Jan-19 10:31N 50°50' E 006°60'10 9.0
2017-Jan-19 09:26N 50°42' E 007°10'100 6.3
2017-Jan-18 17:33N 49°13' E 008°23'9 0.9
2017-Jan-18 07:33N 49°04' E 008°20'0 0.0
2017-Jan-18 06:33N 49°04' E 008°20'0 0.0
2017-Jan-18 05:33N 49°04' E 008°20'0 0.0
2017-Jan-18 04:33N 49°04' E 008°20'3 3.1
2017-Jan-18 03:33N 49°07' E 008°22'5 4.8
2017-Jan-18 02:33N 49°12' E 008°23'5 4.7
2017-Jan-18 01:33N 49°16' E 008°27'4 3.8
2017-Jan-18 00:33N 49°20' E 008°27'6 5.5
2017-Jan-17 23:33N 49°25' E 008°30'  
2017-Jan-14 08:07N 50°41' E 007°11'3 5.4
2017-Jan-14 07:33N 50°43' E 007°08'6 5.4
2017-Jan-14 06:31N 50°47' E 007°02'4 4.0
2017-Jan-14 05:33N 50°51' E 007°00'3 2.8
2017-Jan-14 04:31N 50°54' E 006°59'5 5.0
2017-Jan-14 03:33N 50°59' E 006°60'35 3.5
2017-Jan-13 17:27N 51°32' E 006°41'5 3.6
2017-Jan-13 16:11N 51°35' E 006°36'3 5.2
2017-Jan-13 15:33N 51°39' E 006°36'5 5.1
2017-Jan-13 14:33N 51°40' E 006°29'5 4.9
2017-Jan-13 13:33N 51°45' E 006°25'5 5.3
2017-Jan-13 12:33N 51°48' E 006°19'6 6.2
2017-Jan-13 11:32N 51°51' E 006°09'5 4.7
2017-Jan-13 10:33N 51°52' E 006°02'5 5.3
2017-Jan-13 09:33N 51°52' E 005°54'5 5.1
2017-Jan-13 08:33N 51°53' E 005°46'7 6.6
2017-Jan-13 07:33N 51°54' E 005°35'7 6.2
2017-Jan-13 06:27N 51°51' E 005°25'5 5.2
2017-Jan-13 05:33N 51°49' E 005°18'8 7.7
2017-Jan-13 04:33N 51°50' E 005°05'9 8.8
2017-Jan-13 03:33N 51°49' E 004°51'10 9.7
2017-Jan-13 02:33N 51°48' E 004°35'9 9.2
2017-Jan-13 01:33N 51°51' E 004°21'6 5.7
2017-Jan-13 00:34N 51°54' E 004°13'0 0.0
2017-Jan-12 23:33N 51°54' E 004°13'0 0.0
2017-Jan-12 22:33N 51°54' E 004°13'0 0.0
2017-Jan-12 21:33N 51°54' E 004°13'0 0.0
2017-Jan-12 20:33N 51°54' E 004°13'0 0.0
2017-Jan-12 19:33N 51°54' E 004°13'0 0.0
2017-Jan-12 18:34N 51°54' E 004°13'0 0.0
2017-Jan-12 17:33N 51°54' E 004°13'0 0.1
2017-Jan-12 16:33N 51°54' E 004°13'0 0.0
2017-Jan-12 15:33N 51°54' E 004°13'0 0.0
2017-Jan-12 14:33N 51°54' E 004°13'0 0.0
2017-Jan-12 13:33N 51°54' E 004°13'0 0.0
2017-Jan-12 12:33N 51°54' E 004°13'0 0.0
2017-Jan-12 11:33N 51°54' E 004°13'4 4.0
2017-Jan-12 10:33N 51°53' E 004°20'7 7.3
2017-Jan-12 09:33N 51°54' E 004°31'9 8.8
2017-Jan-12 08:33N 51°55' E 004°46'8 8.4
2017-Jan-12 07:33N 51°58' E 004°58'15 4.9
2017-Jan-12 04:33N 52°12' E 005°00'8 8.4
2017-Jan-12 03:33N 52°21' E 004°60'8 7.8
2017-Jan-12 02:33N 52°25' E 004°49'3 2.6
2017-Jan-12 01:33N 52°25' E 004°45'0 0.0
2017-Jan-12 00:34N 52°25' E 004°45'0 0.0
2017-Jan-11 23:33N 52°25' E 004°45'0 0.0
2017-Jan-11 22:34N 52°25' E 004°45'0 0.0
2017-Jan-11 21:34N 52°25' E 004°45'0 0.0
2017-Jan-11 20:34N 52°25' E 004°45'0 0.0
2017-Jan-11 19:33N 52°25' E 004°45'0 0.3
2017-Jan-11 18:33N 52°25' E 004°45'0 0.0
2017-Jan-11 17:33N 52°25' E 004°45'0 0.0
2017-Jan-11 16:33N 52°25' E 004°45'0 0.0
2017-Jan-11 15:34N 52°25' E 004°45'0 0.0
2017-Jan-11 14:34N 52°25' E 004°45'0 0.0
2017-Jan-11 13:34N 52°25' E 004°45'0 0.0
2017-Jan-11 12:34N 52°25' E 004°45'0 0.0
2017-Jan-11 11:33N 52°25' E 004°45'0 0.0
2017-Jan-11 10:33N 52°25' E 004°45'0 0.0
2017-Jan-11 09:33N 52°25' E 004°45'0 0.0
2017-Jan-11 08:34N 52°25' E 004°45'6 5.6
2017-Jan-11 07:34N 52°23' E 004°54'2 1.9
2017-Jan-11 06:34N 52°23' E 004°57'0 0.0
2017-Jan-11 05:34N 52°23' E 004°57'0 0.3
2017-Jan-11 04:34N 52°23' E 004°57'7 6.9
2017-Jan-11 03:33N 52°16' E 005°01'8 7.6
2017-Jan-11 02:33N 52°09' E 005°01'7 7.3
2017-Jan-11 01:33N 52°02' E 005°07'8 7.5
2017-Jan-11 00:33N 51°59' E 005°17'7 4.6
2017-Jan-10 23:05N 51°55' E 005°26'2 3.8
2017-Jan-10 22:33N 51°53' E 005°28'8 8.4
2017-Jan-10 21:33N 51°54' E 005°42'8 7.8
2017-Jan-10 20:33N 51°52' E 005°54'7 7.0
2017-Jan-10 19:33N 51°51' E 006°06'9 9.2
2017-Jan-10 18:33N 51°47' E 006°19'8 7.5
2017-Jan-10 17:32N 51°42' E 006°28'7 7.0
2017-Jan-10 16:33N 51°37' E 006°35'  
Track history (hours):
 
Tides and Currents Weather Stations Pressure Air Temp Water Temp Dewpoint Dewpoint Depression Visibility Wind Speed Wind Dir Waves Ship Positions

Astra

Last reported at 2017-Jan-20 11:29 UTC. Time now 2017-Jan-20 11:57 UTC.
Position N 50°57' E 006°59'.

Length 110 m.

Type: Tanker. MMSI: 244650752.

Date/timePositionNaut miles runAvg speedWind from/ knotsBaromVisibWave heightAir tempDewpointWater temp
2017-Jan-20 11:29N 50°57' E 006°59'0 0.0
2017-Jan-20 10:29N 50°57' E 006°59'0 0.0
2017-Jan-20 09:33N 50°57' E 006°59'0 0.0
2017-Jan-20 08:32N 50°57' E 006°59'0 0.0
2017-Jan-20 07:31N 50°57' E 006°59'0 0.0
2017-Jan-20 06:30N 50°57' E 006°59'0 0.0
2017-Jan-20 05:29N 50°57' E 006°59'0 0.0
2017-Jan-20 04:33N 50°57' E 006°59'0 0.0
2017-Jan-20 03:32N 50°57' E 006°59'0 0.0
2017-Jan-20 02:31N 50°57' E 006°59'0 0.0
2017-Jan-20 01:28N 50°57' E 006°59'0 0.0
2017-Jan-20 00:32N 50°57' E 006°59'0 0.0
2017-Jan-19 23:31N 50°57' E 006°59'0 0.0
2017-Jan-19 22:31N 50°57' E 006°59'0 0.0
2017-Jan-19 21:30N 50°57' E 006°59'0 0.0
2017-Jan-19 20:29N 50°57' E 006°59'0 0.0
2017-Jan-19 19:31N 50°57' E 006°59'0 0.0
2017-Jan-19 18:29N 50°57' E 006°59'0 0.0
2017-Jan-19 16:16N 50°57' E 006°59'0 0.1
2017-Jan-19 15:30N 50°57' E 006°59'0 0.0
2017-Jan-19 14:29N 50°57' E 006°59'0 0.0
2017-Jan-19 13:33N 50°57' E 006°59'0 0.3
2017-Jan-19 12:33N 50°57' E 006°59'6 6.1
2017-Jan-19 11:30N 50°51' E 007°00'2 1.6
2017-Jan-19 10:31N 50°50' E 006°60'10 9.0
2017-Jan-19 09:26N 50°42' E 007°10'100 6.3
2017-Jan-18 17:33N 49°13' E 008°23'9 0.9
2017-Jan-18 07:33N 49°04' E 008°20'0 0.0
2017-Jan-18 06:33N 49°04' E 008°20'0 0.0
2017-Jan-18 05:33N 49°04' E 008°20'0 0.0
2017-Jan-18 04:33N 49°04' E 008°20'3 3.1
2017-Jan-18 03:33N 49°07' E 008°22'5 4.8
2017-Jan-18 02:33N 49°12' E 008°23'5 4.7
2017-Jan-18 01:33N 49°16' E 008°27'4 3.8
2017-Jan-18 00:33N 49°20' E 008°27'6 5.5
2017-Jan-17 23:33N 49°25' E 008°30'  
2017-Jan-14 08:07N 50°41' E 007°11'3 5.4
2017-Jan-14 07:33N 50°43' E 007°08'6 5.4
2017-Jan-14 06:31N 50°47' E 007°02'4 4.0
2017-Jan-14 05:33N 50°51' E 007°00'3 2.8
2017-Jan-14 04:31N 50°54' E 006°59'5 5.0
2017-Jan-14 03:33N 50°59' E 006°60'35 3.5
2017-Jan-13 17:27N 51°32' E 006°41'5 3.6
2017-Jan-13 16:11N 51°35' E 006°36'3 5.2
2017-Jan-13 15:33N 51°39' E 006°36'5 5.1
2017-Jan-13 14:33N 51°40' E 006°29'5 4.9
2017-Jan-13 13:33N 51°45' E 006°25'5 5.3
2017-Jan-13 12:33N 51°48' E 006°19'6 6.2
2017-Jan-13 11:32N 51°51' E 006°09'5 4.7
2017-Jan-13 10:33N 51°52' E 006°02'5 5.3
2017-Jan-13 09:33N 51°52' E 005°54'5 5.1
2017-Jan-13 08:33N 51°53' E 005°46'7 6.6
2017-Jan-13 07:33N 51°54' E 005°35'7 6.2
2017-Jan-13 06:27N 51°51' E 005°25'5 5.2
2017-Jan-13 05:33N 51°49' E 005°18'8 7.7
2017-Jan-13 04:33N 51°50' E 005°05'9 8.8
2017-Jan-13 03:33N 51°49' E 004°51'10 9.7
2017-Jan-13 02:33N 51°48' E 004°35'9 9.2
2017-Jan-13 01:33N 51°51' E 004°21'6 5.7
2017-Jan-13 00:34N 51°54' E 004°13'0 0.0
2017-Jan-12 23:33N 51°54' E 004°13'0 0.0
2017-Jan-12 22:33N 51°54' E 004°13'0 0.0
2017-Jan-12 21:33N 51°54' E 004°13'0 0.0
2017-Jan-12 20:33N 51°54' E 004°13'0 0.0
2017-Jan-12 19:33N 51°54' E 004°13'0 0.0
2017-Jan-12 18:34N 51°54' E 004°13'0 0.0
2017-Jan-12 17:33N 51°54' E 004°13'0 0.1
2017-Jan-12 16:33N 51°54' E 004°13'0 0.0
2017-Jan-12 15:33N 51°54' E 004°13'0 0.0
2017-Jan-12 14:33N 51°54' E 004°13'0 0.0
2017-Jan-12 13:33N 51°54' E 004°13'0 0.0
2017-Jan-12 12:33N 51°54' E 004°13'0 0.0
2017-Jan-12 11:33N 51°54' E 004°13'4 4.0
2017-Jan-12 10:33N 51°53' E 004°20'7 7.3
2017-Jan-12 09:33N 51°54' E 004°31'9 8.8
2017-Jan-12 08:33N 51°55' E 004°46'8 8.4
2017-Jan-12 07:33N 51°58' E 004°58'15 4.9
2017-Jan-12 04:33N 52°12' E 005°00'8 8.4
2017-Jan-12 03:33N 52°21' E 004°60'8 7.8
2017-Jan-12 02:33N 52°25' E 004°49'3 2.6
2017-Jan-12 01:33N 52°25' E 004°45'0 0.0
2017-Jan-12 00:34N 52°25' E 004°45'0 0.0
2017-Jan-11 23:33N 52°25' E 004°45'0 0.0
2017-Jan-11 22:34N 52°25' E 004°45'0 0.0
2017-Jan-11 21:34N 52°25' E 004°45'0 0.0
2017-Jan-11 20:34N 52°25' E 004°45'0 0.0
2017-Jan-11 19:33N 52°25' E 004°45'0 0.3
2017-Jan-11 18:33N 52°25' E 004°45'0 0.0
2017-Jan-11 17:33N 52°25' E 004°45'0 0.0
2017-Jan-11 16:33N 52°25' E 004°45'0 0.0
2017-Jan-11 15:34N 52°25' E 004°45'0 0.0
2017-Jan-11 14:34N 52°25' E 004°45'0 0.0
2017-Jan-11 13:34N 52°25' E 004°45'0 0.0
2017-Jan-11 12:34N 52°25' E 004°45'0 0.0
2017-Jan-11 11:33N 52°25' E 004°45'0 0.0
2017-Jan-11 10:33N 52°25' E 004°45'0 0.0
2017-Jan-11 09:33N 52°25' E 004°45'0 0.0
2017-Jan-11 08:34N 52°25' E 004°45'6 5.6
2017-Jan-11 07:34N 52°23' E 004°54'2 1.9
2017-Jan-11 06:34N 52°23' E 004°57'0 0.0
2017-Jan-11 05:34N 52°23' E 004°57'0 0.3
2017-Jan-11 04:34N 52°23' E 004°57'7 6.9
2017-Jan-11 03:33N 52°16' E 005°01'8 7.6
2017-Jan-11 02:33N 52°09' E 005°01'7 7.3
2017-Jan-11 01:33N 52°02' E 005°07'8 7.5
2017-Jan-11 00:33N 51°59' E 005°17'7 4.6
2017-Jan-10 23:05N 51°55' E 005°26'2 3.8
2017-Jan-10 22:33N 51°53' E 005°28'8 8.4
2017-Jan-10 21:33N 51°54' E 005°42'8 7.8
2017-Jan-10 20:33N 51°52' E 005°54'7 7.0
2017-Jan-10 19:33N 51°51' E 006°06'9 9.2
2017-Jan-10 18:33N 51°47' E 006°19'8 7.5
2017-Jan-10 17:32N 51°42' E 006°28'7 7.0
2017-Jan-10 16:33N 51°37' E 006°35'  

Dump ship's entire track history